Time;durP1;ratioP1;P1;durP2;ratioP2;P2;SDS_P1;SDS_P2;PMS_P1;PMS_P2;Temp;Humidity;BMP_temperature;BMP_pressure;BME280_temperature;BME280_humidity;BME280_pressure;Samples;Min_cycle;Max_cycle;Signal;HPM_P1;HPM_P2
2023/06/26 00:00:20;;;;;;;13.63;12.25;;;;;;;;;;5036962;28;20080;-75
2023/06/26 00:02:47;;;;;;;14.55;12.98;;;;;;;;;;5037177;28;20068;-74
2023/06/26 00:05:13;;;;;;;16.13;13.35;;;;;;;;;;5037274;28;20099;-75
2023/06/26 00:07:39;;;;;;;13.68;12.20;;;;;;;;;;5036747;28;20503;-74
2023/06/26 00:10:06;;;;;;;14.60;13.20;;;;;;;;;;5036699;28;20468;-75
2023/06/26 00:12:32;;;;;;;15.57;13.20;;;;;;;;;;5030789;28;20381;-75
2023/06/26 00:14:58;;;;;;;14.65;13.15;;;;;;;;;;5036147;28;20411;-75
2023/06/26 00:17:24;;;;;;;14.30;12.90;;;;;;;;;;5036009;28;20041;-75
2023/06/26 00:19:51;;;;;;;16.55;12.90;;;;;;;;;;5033469;28;20483;-75
2023/06/26 00:22:17;;;;;;;14.73;12.70;;;;;;;;;;5024969;28;20037;-75
2023/06/26 00:24:44;;;;;;;14.52;12.68;;;;;;;;;;5035497;28;20041;-74
2023/06/26 00:27:10;;;;;;;13.05;11.75;;;;;;;;;;5036467;28;20049;-75
2023/06/26 00:29:38;;;;;;;13.50;12.20;;;;;;;;;;5027968;28;20080;-75
2023/06/26 00:32:04;;;;;;;14.23;12.48;;;;;;;;;;5037719;28;20041;-76
2023/06/26 00:34:30;;;;;;;13.80;12.15;;;;;;;;;;5037924;28;20045;-76
2023/06/26 00:36:56;;;;;;;14.98;12.50;;;;;;;;;;5056813;28;20403;-75
2023/06/26 00:39:25;;;;;;;12.98;11.65;;;;;;;;;;5049244;28;20048;-75
2023/06/26 00:41:53;;;;;;;13.48;12.07;;;;;;;;;;5039366;28;20045;-75
2023/06/26 00:44:22;;;;;;;13.85;12.45;;;;;;;;;;5039086;28;20056;-75
2023/06/26 00:46:48;;;;;;;14.98;12.63;;;;;;;;;;5038468;28;20148;-76
2023/06/26 00:49:16;;;;;;;15.10;13.57;;;;;;;;;;5036743;28;20038;-75
2023/06/26 00:51:42;;;;;;;13.95;12.55;;;;;;;;;;5018327;28;20045;-76
2023/06/26 00:54:08;;;;;;;14.48;12.80;;;;;;;;;;5016773;28;20503;-76
2023/06/26 00:56:35;;;;;;;14.32;12.75;;;;;;;;;;5033691;28;20500;-75
2023/06/26 00:59:01;;;;;;;14.15;12.77;;;;;;;;;;5033461;28;20049;-75
2023/06/26 01:01:27;;;;;;;13.90;12.50;;;;;;;;;;5036480;28;20389;-75
2023/06/26 01:03:54;;;;;;;14.63;13.20;;;;;;;;;;5037662;28;20057;-76
2023/06/26 01:06:24;;;;;;;14.48;12.90;;;;;;;;;;5038529;28;20044;-76
2023/06/26 01:08:52;;;;;;;14.10;12.40;;;;;;;;;;5036653;28;20037;-76
2023/06/26 01:11:18;;;;;;;13.55;12.02;;;;;;;;;;5036413;28;20103;-76
2023/06/26 01:13:45;;;;;;;14.82;13.02;;;;;;;;;;5030154;28;20033;-75
2023/06/26 01:16:11;;;;;;;14.05;12.25;;;;;;;;;;5035279;28;20049;-76
2023/06/26 01:18:42;;;;;;;14.57;12.63;;;;;;;;;;5035863;28;20045;-76
2023/06/26 01:21:09;;;;;;;14.02;12.57;;;;;;;;;;5035992;28;20049;-74
2023/06/26 01:23:38;;;;;;;13.90;12.48;;;;;;;;;;5036174;28;20042;-75
2023/06/26 01:26:04;;;;;;;14.40;12.90;;;;;;;;;;5036066;28;20415;-75
2023/06/26 01:28:31;;;;;;;15.35;13.02;;;;;;;;;;5033898;28;20041;-74
2023/06/26 01:30:58;;;;;;;15.27;12.73;;;;;;;;;;5032979;28;20038;-75
2023/06/26 01:33:24;;;;;;;14.20;12.70;;;;;;;;;;5028231;28;20399;-75
2023/06/26 01:35:51;;;;;;;14.65;13.25;;;;;;;;;;5034701;28;20041;-75
2023/06/26 01:38:18;;;;;;;15.40;13.32;;;;;;;;;;5025525;28;20037;-76
2023/06/26 01:40:44;;;;;;;13.68;12.27;;;;;;;;;;5030194;28;20060;-76
2023/06/26 01:43:21;;;;;;;16.10;13.13;;;;;;;;;;5032401;28;20049;-74
2023/06/26 01:45:49;;;;;;;15.50;13.75;;;;;;;;;;5038434;28;20041;-74
2023/06/26 01:48:17;;;;;;;15.75;13.68;;;;;;;;;;5035286;28;20041;-75
2023/06/26 01:50:44;;;;;;;15.05;13.55;;;;;;;;;;5052527;28;20049;-75
2023/06/26 01:53:16;;;;;;;15.25;13.65;;;;;;;;;;5052373;28;20045;-75
2023/06/26 01:55:47;;;;;;;15.73;14.07;;;;;;;;;;5035274;28;20045;-75
2023/06/26 01:58:16;;;;;;;17.48;15.32;;;;;;;;;;5035306;28;20103;-75
2023/06/26 02:00:43;;;;;;;16.38;14.68;;;;;;;;;;5037011;28;20073;-75
2023/06/26 02:03:09;;;;;;;16.98;15.20;;;;;;;;;;5035602;28;20116;-76
2023/06/26 02:05:35;;;;;;;17.08;15.38;;;;;;;;;;5035086;28;20092;-75
2023/06/26 02:08:02;;;;;;;17.48;15.68;;;;;;;;;;5038972;28;20049;-75
2023/06/26 02:10:29;;;;;;;17.23;15.63;;;;;;;;;;5038731;28;20120;-75
2023/06/26 02:12:55;;;;;;;16.90;15.23;;;;;;;;;;5037736;28;20045;-75
2023/06/26 02:15:22;;;;;;;16.98;15.27;;;;;;;;;;5034829;28;20081;-75
2023/06/26 02:17:48;;;;;;;16.35;14.77;;;;;;;;;;5037535;28;20084;-75
2023/06/26 02:20:17;;;;;;;15.93;14.30;;;;;;;;;;5022459;28;20072;-75
2023/06/26 02:22:43;;;;;;;16.00;14.30;;;;;;;;;;5040628;28;20076;-75
2023/06/26 02:25:12;;;;;;;17.23;15.40;;;;;;;;;;5038325;28;20042;-74
2023/06/26 02:27:38;;;;;;;15.88;14.27;;;;;;;;;;5037737;28;20034;-75
2023/06/26 02:30:04;;;;;;;16.27;14.23;;;;;;;;;;5037531;28;20042;-76
2023/06/26 02:32:30;;;;;;;15.90;14.20;;;;;;;;;;5035620;28;20045;-76
2023/06/26 02:34:56;;;;;;;16.75;15.07;;;;;;;;;;5037435;28;20076;-76
2023/06/26 02:37:23;;;;;;;16.20;14.20;;;;;;;;;;5036449;28;20146;-75
2023/06/26 02:39:49;;;;;;;15.77;14.18;;;;;;;;;;5036019;28;20570;-75
2023/06/26 02:42:15;;;;;;;18.15;14.45;;;;;;;;;;5036647;28;20411;-75
2023/06/26 02:44:41;;;;;;;16.27;14.57;;;;;;;;;;5036722;28;20038;-75
2023/06/26 02:47:07;;;;;;;16.65;14.77;;;;;;;;;;5036798;28;20041;-75
2023/06/26 02:49:33;;;;;;;15.25;13.65;;;;;;;;;;5036101;28;20045;-75
2023/06/26 02:51:59;;;;;;;15.52;13.93;;;;;;;;;;5036159;28;20049;-76
2023/06/26 02:54:25;;;;;;;16.20;14.32;;;;;;;;;;5035567;28;20057;-76
2023/06/26 02:56:52;;;;;;;15.35;13.75;;;;;;;;;;5037087;28;20069;-76
2023/06/26 02:59:18;;;;;;;16.92;14.30;;;;;;;;;;5035319;28;20049;-74
2023/06/26 03:01:44;;;;;;;16.35;13.75;;;;;;;;;;5037668;28;20060;-75
2023/06/26 03:04:10;;;;;;;15.07;13.45;;;;;;;;;;5035604;28;20045;-76
2023/06/26 03:06:36;;;;;;;19.58;13.65;;;;;;;;;;5038020;28;20068;-76
2023/06/26 03:09:03;;;;;;;14.93;13.32;;;;;;;;;;5036170;28;20400;-75
2023/06/26 03:11:29;;;;;;;15.95;14.32;;;;;;;;;;5037273;28;20049;-76
2023/06/26 03:13:55;;;;;;;16.45;14.25;;;;;;;;;;5029262;28;20045;-76
2023/06/26 03:16:21;;;;;;;16.73;12.82;;;;;;;;;;5035538;28;20049;-75
2023/06/26 03:18:47;;;;;;;14.82;13.23;;;;;;;;;;5036255;28;20049;-76
2023/06/26 03:21:13;;;;;;;14.55;12.35;;;;;;;;;;5033496;28;20468;-75
2023/06/26 03:23:39;;;;;;;14.57;13.07;;;;;;;;;;5039984;28;20049;-75
2023/06/26 03:26:05;;;;;;;13.93;12.48;;;;;;;;;;5037843;28;20050;-75
2023/06/26 03:28:31;;;;;;;14.52;12.98;;;;;;;;;;5040668;28;20103;-76
2023/06/26 03:30:58;;;;;;;14.80;13.38;;;;;;;;;;5038505;28;20071;-75
2023/06/26 03:33:24;;;;;;;14.57;13.05;;;;;;;;;;5038835;28;20076;-76
2023/06/26 03:35:50;;;;;;;15.05;12.95;;;;;;;;;;5024141;28;20046;-75
2023/06/26 03:38:16;;;;;;;14.63;12.88;;;;;;;;;;5022418;28;20056;-76
2023/06/26 03:40:42;;;;;;;14.18;12.45;;;;;;;;;;5040717;28;20051;-74
2023/06/26 03:43:08;;;;;;;15.30;12.98;;;;;;;;;;5041510;28;20399;-75
2023/06/26 03:45:34;;;;;;;13.93;12.10;;;;;;;;;;5039715;28;20133;-76
2023/06/26 03:48:00;;;;;;;15.25;12.70;;;;;;;;;;5039023;28;20080;-76
2023/06/26 03:50:26;;;;;;;13.50;12.07;;;;;;;;;;5037061;28;20076;-75
2023/06/26 03:52:54;;;;;;;14.27;12.43;;;;;;;;;;5038652;28;20151;-75
2023/06/26 03:55:22;;;;;;;14.05;12.60;;;;;;;;;;5033679;28;20046;-74
2023/06/26 03:57:48;;;;;;;13.63;12.23;;;;;;;;;;5038375;28;20073;-76
2023/06/26 04:00:15;;;;;;;13.30;11.90;;;;;;;;;;5037546;28;20050;-76
2023/06/26 04:02:41;;;;;;;13.45;12.02;;;;;;;;;;5034044;28;20054;-75
2023/06/26 04:05:07;;;;;;;14.20;12.80;;;;;;;;;;5029803;28;20045;-76
2023/06/26 04:07:34;;;;;;;15.88;12.63;;;;;;;;;;5039281;28;20049;-76
2023/06/26 04:10:00;;;;;;;13.30;11.90;;;;;;;;;;5039721;28;20101;-75
2023/06/26 04:12:26;;;;;;;13.48;11.88;;;;;;;;;;5039716;28;20048;-75
2023/06/26 04:14:52;;;;;;;14.10;12.45;;;;;;;;;;5038010;28;20045;-75
2023/06/26 04:17:19;;;;;;;13.15;11.75;;;;;;;;;;5032054;28;20056;-76
2023/06/26 04:19:45;;;;;;;15.85;11.77;;;;;;;;;;5036362;28;20042;-75
2023/06/26 04:22:11;;;;;;;13.00;11.30;;;;;;;;;;5039171;28;20053;-75
2023/06/26 04:24:37;;;;;;;12.77;11.48;;;;;;;;;;5037331;28;20057;-75
2023/06/26 04:27:04;;;;;;;13.85;11.35;;;;;;;;;;5033277;28;20049;-74
2023/06/26 04:29:30;;;;;;;13.63;11.63;;;;;;;;;;5037231;28;20037;-76
2023/06/26 04:31:59;;;;;;;14.23;10.85;;;;;;;;;;5041302;28;20072;-75
2023/06/26 04:34:25;;;;;;;12.88;10.95;;;;;;;;;;5037670;28;20076;-74
2023/06/26 04:36:52;;;;;;;13.25;10.48;;;;;;;;;;5034871;28;20042;-75
2023/06/26 04:39:18;;;;;;;11.52;10.32;;;;;;;;;;5037475;28;20054;-75
2023/06/26 04:41:44;;;;;;;13.38;10.10;;;;;;;;;;5036374;28;20044;-74
2023/06/26 04:44:10;;;;;;;11.02;9.32;;;;;;;;;;5037095;28;20053;-75
2023/06/26 04:46:41;;;;;;;13.07;10.40;;;;;;;;;;5039877;28;20053;-75
2023/06/26 04:49:07;;;;;;;11.67;10.03;;;;;;;;;;5041811;28;20518;-75
2023/06/26 04:51:33;;;;;;;10.95;9.73;;;;;;;;;;5039953;28;20048;-75
2023/06/26 04:53:59;;;;;;;13.45;9.65;;;;;;;;;;5038927;28;20041;-75
2023/06/26 04:56:25;;;;;;;13.27;9.85;;;;;;;;;;5039390;28;20045;-75
2023/06/26 04:58:51;;;;;;;14.13;9.82;;;;;;;;;;5037079;28;20488;-76
2023/06/26 05:01:17;;;;;;;12.57;8.95;;;;;;;;;;5040003;28;20045;-75
2023/06/26 05:03:45;;;;;;;11.70;9.73;;;;;;;;;;5042366;28;20525;-75
2023/06/26 05:06:11;;;;;;;12.68;9.45;;;;;;;;;;5041236;28;20107;-76
2023/06/26 05:08:37;;;;;;;10.80;8.70;;;;;;;;;;5039477;28;20048;-76
2023/06/26 05:11:03;;;;;;;17.42;10.57;;;;;;;;;;5040737;28;20130;-75
2023/06/26 05:13:29;;;;;;;13.65;9.07;;;;;;;;;;5039391;28;20075;-76
2023/06/26 05:15:55;;;;;;;13.57;9.30;;;;;;;;;;5037292;28;20045;-75
2023/06/26 05:18:21;;;;;;;11.77;8.05;;;;;;;;;;5039306;28;20046;-76
2023/06/26 05:20:49;;;;;;;13.35;8.60;;;;;;;;;;5021961;28;20162;-75
2023/06/26 05:23:16;;;;;;;11.57;8.18;;;;;;;;;;5039920;28;20041;-75
2023/06/26 05:25:43;;;;;;;12.30;8.30;;;;;;;;;;5039279;28;20101;-74
2023/06/26 05:28:13;;;;;;;12.82;8.27;;;;;;;;;;5037533;28;20054;-75
2023/06/26 05:30:39;;;;;;;12.50;7.82;;;;;;;;;;5030660;28;20041;-76
2023/06/26 05:33:06;;;;;;;15.25;8.00;;;;;;;;;;5039595;28;20044;-76
2023/06/26 05:35:32;;;;;;;13.30;8.52;;;;;;;;;;5041889;28;20057;-76
2023/06/26 05:37:59;;;;;;;13.98;8.63;;;;;;;;;;5039871;28;20077;-74
2023/06/26 05:40:25;;;;;;;13.60;8.10;;;;;;;;;;5039803;28;20100;-75
2023/06/26 05:42:51;;;;;;;14.52;9.00;;;;;;;;;;5040112;28;20049;-75
2023/06/26 05:45:18;;;;;;;18.55;9.25;;;;;;;;;;5023984;28;20042;-74
2023/06/26 05:47:44;;;;;;;19.45;8.50;;;;;;;;;;5036533;28;20412;-75
2023/06/26 05:50:10;;;;;;;15.10;8.95;;;;;;;;;;5039513;28;20049;-76
2023/06/26 05:52:38;;;;;;;17.02;8.98;;;;;;;;;;5042051;28;20501;-76
2023/06/26 05:55:04;;;;;;;16.55;8.82;;;;;;;;;;5036612;28;20050;-76
2023/06/26 05:57:31;;;;;;;12.82;8.25;;;;;;;;;;5032847;28;20042;-75
2023/06/26 05:59:57;;;;;;;16.05;8.63;;;;;;;;;;5035729;28;20053;-75
2023/06/26 06:02:23;;;;;;;15.48;8.50;;;;;;;;;;5033217;28;20127;-74
2023/06/26 06:04:49;;;;;;;14.43;8.57;;;;;;;;;;5027822;28;20048;-75
2023/06/26 06:07:15;;;;;;;14.48;8.60;;;;;;;;;;5040391;28;20053;-75
2023/06/26 06:09:41;;;;;;;14.15;8.20;;;;;;;;;;5041226;28;20045;-76
2023/06/26 06:12:08;;;;;;;11.23;7.20;;;;;;;;;;5041592;28;20082;-72
2023/06/26 06:14:34;;;;;;;14.77;6.90;;;;;;;;;;5033291;28;20882;-73
2023/06/26 06:17:01;;;;;;;14.35;6.93;;;;;;;;;;5025739;28;20068;-71
2023/06/26 06:19:27;;;;;;;13.50;7.07;;;;;;;;;;5026430;28;20041;-72
2023/06/26 06:21:53;;;;;;;13.43;6.40;;;;;;;;;;5034107;28;20479;-72
2023/06/26 06:24:20;;;;;;;15.63;7.18;;;;;;;;;;5032903;28;20495;-72
2023/06/26 06:26:46;;;;;;;13.95;7.00;;;;;;;;;;5032111;28;20052;-72
2023/06/26 06:29:12;;;;;;;12.18;6.80;;;;;;;;;;5033123;28;20053;-72
2023/06/26 06:31:38;;;;;;;13.43;6.13;;;;;;;;;;5029182;28;20044;-71
2023/06/26 06:34:04;;;;;;;14.20;6.63;;;;;;;;;;5039332;28;20037;-72
2023/06/26 06:36:30;;;;;;;13.68;6.38;;;;;;;;;;5032797;28;20416;-74
2023/06/26 06:38:57;;;;;;;13.10;6.32;;;;;;;;;;5043505;28;20049;-72
2023/06/26 06:41:23;;;;;;;12.75;5.43;;;;;;;;;;5034250;28;20054;-72
2023/06/26 06:43:49;;;;;;;15.77;5.90;;;;;;;;;;5032256;28;20037;-72
2023/06/26 06:46:15;;;;;;;12.23;5.28;;;;;;;;;;5030838;28;20384;-72
2023/06/26 06:48:41;;;;;;;11.90;4.97;;;;;;;;;;5031660;28;20145;-73
2023/06/26 06:51:07;;;;;;;9.77;4.55;;;;;;;;;;5032245;28;20132;-73
2023/06/26 06:53:33;;;;;;;9.77;4.03;;;;;;;;;;5031452;28;20045;-72
2023/06/26 06:55:59;;;;;;;9.25;4.22;;;;;;;;;;5033992;28;20041;-72
2023/06/26 06:58:25;;;;;;;9.68;4.38;;;;;;;;;;5041623;28;20079;-72
2023/06/26 07:00:51;;;;;;;10.95;4.05;;;;;;;;;;5034297;28;20041;-72
2023/06/26 07:03:18;;;;;;;9.75;4.25;;;;;;;;;;5036325;28;20053;-72
2023/06/26 07:05:44;;;;;;;11.55;4.07;;;;;;;;;;5037096;28;20053;-72
2023/06/26 07:08:10;;;;;;;9.20;3.75;;;;;;;;;;5034848;28;20041;-72
2023/06/26 07:10:36;;;;;;;10.05;3.42;;;;;;;;;;5035133;28;20471;-72
2023/06/26 07:13:02;;;;;;;13.90;3.65;;;;;;;;;;5038847;28;20048;-75
2023/06/26 07:15:28;;;;;;;8.55;3.10;;;;;;;;;;5036959;28;20048;-73
2023/06/26 07:17:54;;;;;;;9.63;2.78;;;;;;;;;;5038983;28;20045;-72
2023/06/26 07:20:21;;;;;;;11.23;3.20;;;;;;;;;;5036622;28;20049;-74
2023/06/26 07:22:47;;;;;;;9.73;3.30;;;;;;;;;;5036872;28;20055;-71
2023/06/26 07:25:13;;;;;;;10.82;2.80;;;;;;;;;;5038465;28;20107;-72
2023/06/26 07:27:39;;;;;;;9.48;3.20;;;;;;;;;;5039192;28;20116;-73
2023/06/26 07:30:06;;;;;;;12.55;3.40;;;;;;;;;;5038002;28;20117;-76
2023/06/26 07:32:32;;;;;;;9.95;2.70;;;;;;;;;;5040374;28;20103;-76
2023/06/26 07:34:58;;;;;;;7.80;2.22;;;;;;;;;;5038905;28;20107;-72
2023/06/26 07:37:24;;;;;;;7.97;1.98;;;;;;;;;;5037330;28;20053;-73
2023/06/26 07:39:50;;;;;;;7.47;2.42;;;;;;;;;;5038080;28;20076;-78
2023/06/26 07:42:16;;;;;;;8.00;2.40;;;;;;;;;;5043108;28;20080;-77
2023/06/26 07:44:43;;;;;;;8.75;2.53;;;;;;;;;;5029770;28;20199;-77
2023/06/26 07:47:09;;;;;;;8.27;2.40;;;;;;;;;;5039319;28;20077;-74
2023/06/26 07:49:35;;;;;;;8.23;2.30;;;;;;;;;;5036970;28;20049;-74
2023/06/26 07:52:01;;;;;;;8.13;2.60;;;;;;;;;;5040955;28;20041;-77
2023/06/26 07:54:28;;;;;;;8.98;2.50;;;;;;;;;;5040999;28;20586;-72
2023/06/26 07:56:54;;;;;;;9.55;2.20;;;;;;;;;;5037368;28;20054;-72
2023/06/26 07:59:22;;;;;;;7.40;2.35;;;;;;;;;;5041372;28;20415;-75
2023/06/26 08:01:48;;;;;;;8.18;2.25;;;;;;;;;;5037814;28;20045;-75
2023/06/26 08:04:14;;;;;;;8.05;2.28;;;;;;;;;;5037280;28;20103;-72
2023/06/26 08:06:40;;;;;;;7.68;2.00;;;;;;;;;;5029497;28;20399;-76
2023/06/26 08:09:11;;;;;;;9.50;2.00;;;;;;;;;;5036394;28;20113;-73
2023/06/26 08:11:37;;;;;;;;;;;;;;;;;;5033478;28;20084;-73
2023/06/26 08:14:03;;;;;;;8.07;2.15;;;;;;;;;;5037193;28;19928;-74
2023/06/26 08:16:29;;;;;;;8.40;2.40;;;;;;;;;;5036141;28;20048;-74
2023/06/26 08:18:55;;;;;;;7.40;2.35;;;;;;;;;;5035699;28;20061;-74
2023/06/26 08:21:21;;;;;;;6.40;2.10;;;;;;;;;;5034670;28;20554;-74
2023/06/26 08:23:47;;;;;;;9.82;2.30;;;;;;;;;;5034897;28;20045;-73
2023/06/26 08:26:14;;;;;;;6.70;1.67;;;;;;;;;;5034500;28;20076;-73
2023/06/26 08:28:40;;;;;;;7.22;1.90;;;;;;;;;;5042286;28;20038;-74
2023/06/26 08:31:06;;;;;;;10.00;2.13;;;;;;;;;;5037697;28;20049;-75
2023/06/26 08:33:32;;;;;;;9.18;2.00;;;;;;;;;;5035688;28;20068;-74
2023/06/26 08:35:58;;;;;;;6.60;1.92;;;;;;;;;;5033022;28;20357;-74
2023/06/26 08:38:24;;;;;;;9.27;2.38;;;;;;;;;;5026838;28;20082;-74
2023/06/26 08:40:50;;;;;;;7.32;2.10;;;;;;;;;;5033850;28;20488;-74
2023/06/26 08:43:16;;;;;;;5.47;1.70;;;;;;;;;;5038482;28;20052;-73
2023/06/26 08:45:42;;;;;;;6.72;1.80;;;;;;;;;;5032025;28;20411;-73
2023/06/26 08:48:09;;;;;;;7.80;1.85;;;;;;;;;;5033339;28;20081;-72
2023/06/26 08:50:35;;;;;;;8.15;2.42;;;;;;;;;;5036248;28;20065;-72
2023/06/26 08:53:06;;;;;;;6.57;2.28;;;;;;;;;;5035119;28;20046;-73
2023/06/26 08:55:36;;;;;;;6.25;1.80;;;;;;;;;;5031682;28;20564;-73
2023/06/26 08:58:02;;;;;;;7.10;1.80;;;;;;;;;;5027968;28;20103;-71
2023/06/26 09:00:28;;;;;;;6.85;1.83;;;;;;;;;;5017653;28;20037;-74
2023/06/26 09:02:56;;;;;;;7.38;1.85;;;;;;;;;;5034838;28;20107;-72
2023/06/26 09:05:22;;;;;;;5.05;1.73;;;;;;;;;;5037042;28;20071;-72
2023/06/26 09:07:48;;;;;;;5.97;1.60;;;;;;;;;;5032970;28;20048;-72
2023/06/26 09:10:14;;;;;;;7.30;1.80;;;;;;;;;;5035512;28;20095;-72
2023/06/26 09:12:40;;;;;;;7.57;1.80;;;;;;;;;;5034955;28;20045;-73
2023/06/26 09:15:07;;;;;;;5.30;1.55;;;;;;;;;;5032903;28;20522;-72
2023/06/26 09:17:34;;;;;;;5.90;1.70;;;;;;;;;;5034229;28;20042;-73
2023/06/26 09:20:00;;;;;;;9.00;1.80;;;;;;;;;;5034080;28;20098;-73
2023/06/26 09:22:27;;;;;;;11.15;2.10;;;;;;;;;;5034309;28;20053;-72
2023/06/26 09:24:53;;;;;;;6.55;2.08;;;;;;;;;;5034842;28;20041;-72
2023/06/26 09:27:19;;;;;;;6.28;1.70;;;;;;;;;;5033232;28;20044;-73
2023/06/26 09:29:49;;;;;;;6.93;2.15;;;;;;;;;;5033614;28;20116;-73
2023/06/26 09:32:15;;;;;;;7.35;2.00;;;;;;;;;;5035081;28;20049;-72
2023/06/26 09:34:42;;;;;;;22.83;3.35;;;;;;;;;;5035374;28;20049;-73
2023/06/26 09:37:08;;;;;;;6.60;2.25;;;;;;;;;;5027798;28;20183;-73
2023/06/26 09:39:34;;;;;;;6.80;1.88;;;;;;;;;;5036338;28;20049;-72
2023/06/26 09:42:01;;;;;;;6.78;1.88;;;;;;;;;;5034514;28;20049;-73
2023/06/26 09:44:28;;;;;;;15.63;2.60;;;;;;;;;;5032552;28;20705;-73
2023/06/26 09:46:55;;;;;;;6.80;2.20;;;;;;;;;;5031562;28;20421;-74
2023/06/26 09:49:21;;;;;;;7.03;2.25;;;;;;;;;;5035421;28;20050;-75
2023/06/26 09:51:49;;;;;;;7.65;2.08;;;;;;;;;;5030908;28;20033;-71
2023/06/26 09:54:17;;;;;;;6.80;2.20;;;;;;;;;;5034813;28;20045;-74
2023/06/26 09:56:43;;;;;;;9.52;2.45;;;;;;;;;;5038234;28;20053;-75
2023/06/26 09:59:09;;;;;;;8.85;2.17;;;;;;;;;;5038709;28;20367;-74
2023/06/26 10:01:40;;;;;;;5.78;2.22;;;;;;;;;;5039449;28;20053;-73
2023/06/26 10:04:06;;;;;;;7.30;2.33;;;;;;;;;;5039597;28;20076;-73
2023/06/26 10:06:33;;;;;;;7.45;2.03;;;;;;;;;;5036616;28;20112;-73
2023/06/26 10:09:00;;;;;;;7.95;2.35;;;;;;;;;;5035981;28;20411;-74
2023/06/26 10:11:30;;;;;;;8.98;2.13;;;;;;;;;;5037383;28;20052;-78
2023/06/26 10:13:57;;;;;;;8.15;2.35;;;;;;;;;;5032535;28;20102;-73
2023/06/26 10:16:28;;;;;;;6.82;2.05;;;;;;;;;;5027131;28;20121;-74
2023/06/26 10:18:57;;;;;;;6.50;1.80;;;;;;;;;;5038254;28;20041;-75
2023/06/26 10:21:23;;;;;;;6.60;1.75;;;;;;;;;;5035864;28;20503;-73
2023/06/26 10:23:52;;;;;;;9.30;2.10;;;;;;;;;;5038585;28;20050;-74
2023/06/26 10:26:21;;;;;;;6.50;1.88;;;;;;;;;;5039080;28;20052;-72
2023/06/26 10:28:51;;;;;;;6.75;1.65;;;;;;;;;;5035231;28;20049;-75
2023/06/26 10:31:17;;;;;;;;;;;;;;;;;;5036231;28;20462;-73
2023/06/26 10:33:43;;;;;;;6.63;1.92;;;;;;;;;;5036214;28;19929;-74
2023/06/26 10:36:14;;;;;;;7.45;2.05;;;;;;;;;;5037783;28;20052;-75
2023/06/26 10:38:51;;;;;;;6.05;2.13;;;;;;;;;;5035360;28;20050;-73
2023/06/26 10:41:20;;;;;;;8.63;2.50;;;;;;;;;;5028016;28;20049;-75
2023/06/26 10:43:49;;;;;;;8.43;1.83;;;;;;;;;;5040541;28;20046;-74
2023/06/26 10:46:20;;;;;;;6.20;1.88;;;;;;;;;;5042414;28;20093;-74
2023/06/26 10:48:46;;;;;;;;;;;;;;;;;;5040030;28;20101;-76
2023/06/26 10:51:15;;;;;;;7.50;2.00;;;;;;;;;;5036679;28;19971;-74
2023/06/26 10:53:43;;;;;;;5.07;1.90;;;;;;;;;;5035169;28;20503;-74
2023/06/26 10:56:10;;;;;;;7.20;2.17;;;;;;;;;;5036979;28;20041;-76
2023/06/26 10:58:42;;;;;;;5.95;2.00;;;;;;;;;;5035378;28;21222;-73
2023/06/26 11:01:15;;;;;;;5.18;1.92;;;;;;;;;;5034490;28;21601;-73
2023/06/26 11:03:42;;;;;;;6.68;2.30;;;;;;;;;;5030652;28;20053;-73
2023/06/26 11:06:12;;;;;;;6.93;2.17;;;;;;;;;;5032741;28;20577;-76
2023/06/26 11:08:46;;;;;;;8.07;2.00;;;;;;;;;;5039095;28;20446;-74
2023/06/26 11:11:12;;;;;;;6.80;2.22;;;;;;;;;;5037541;28;20054;-75
2023/06/26 11:13:39;;;;;;;10.65;2.80;;;;;;;;;;5035823;28;20052;-74
2023/06/26 11:16:05;;;;;;;4.75;2.10;;;;;;;;;;5035653;28;20151;-74
2023/06/26 11:18:32;;;;;;;6.10;2.03;;;;;;;;;;5037418;28;20041;-75
2023/06/26 11:21:08;;;;;;;7.65;2.35;;;;;;;;;;5034701;28;20053;-74
2023/06/26 11:23:36;;;;;;;6.05;2.00;;;;;;;;;;5033668;28;20068;-76
2023/06/26 11:26:21;;;;;;;6.57;2.25;;;;;;;;;;5032273;28;20083;-73
2023/06/26 11:28:50;;;;;;;6.68;1.90;;;;;;;;;;5037240;28;20050;-75
2023/06/26 11:31:26;;;;;;;5.13;1.77;;;;;;;;;;5036922;28;20045;-75
2023/06/26 11:33:53;;;;;;;6.38;1.85;;;;;;;;;;5041399;28;20082;-74
2023/06/26 11:36:19;;;;;;;9.15;2.78;;;;;;;;;;5034142;28;20064;-74
2023/06/26 11:38:45;;;;;;;6.35;2.05;;;;;;;;;;5039413;28;20045;-72
2023/06/26 11:41:17;;;;;;;8.95;1.92;;;;;;;;;;5036963;28;20049;-77
2023/06/26 11:43:43;;;;;;;5.53;1.55;;;;;;;;;;5039835;28;20100;-78
2023/06/26 11:48:45;;;;;;;8.40;1.65;;;;;;;;;;1215825;22;20442;-88
2023/06/26 11:51:14;;;;;;;6.10;1.40;;;;;;;;;;5018019;28;20050;-89
2023/06/26 11:53:44;;;;;;;5.53;1.52;;;;;;;;;;5028834;28;20065;-88
2023/06/26 11:56:14;;;;;;;6.20;1.60;;;;;;;;;;5013306;28;20050;-91
2023/06/26 11:59:02;;;;;;;7.35;1.70;;;;;;;;;;5033326;28;20065;-92
2023/06/26 12:01:37;;;;;;;5.18;1.48;;;;;;;;;;5037453;28;20046;-88
2023/06/26 12:04:08;;;;;;;5.30;1.30;;;;;;;;;;5034273;28;20061;-92
2023/06/26 12:06:34;;;;;;;;;;;;;;;;;;5017644;28;20042;-92
2023/06/26 12:09:06;;;;;;;7.05;1.65;;;;;;;;;;5019265;28;19929;-93
2023/06/26 12:11:56;;;;;;;6.63;1.88;;;;;;;;;;5035646;28;20049;-88
2023/06/26 12:14:29;;;;;;;7.10;1.83;;;;;;;;;;5036593;28;20042;-92
2023/06/26 12:17:24;;;;;;;8.63;1.80;;;;;;;;;;5033293;28;20032;-91
2023/06/26 12:19:53;;;;;;;7.03;1.30;;;;;;;;;;5003453;28;20022;-90
2023/06/26 12:22:20;;;;;;;7.38;1.45;;;;;;;;;;5018485;28;20078;-89
2023/06/26 12:24:55;;;;;;;5.97;1.30;;;;;;;;;;5026998;28;20045;-92
2023/06/26 12:27:29;;;;;;;7.53;1.48;;;;;;;;;;5015411;28;20133;-90
2023/06/26 12:29:58;;;;;;;5.43;1.20;;;;;;;;;;5008585;28;20046;-93
2023/06/26 12:32:25;;;;;;;4.20;1.30;;;;;;;;;;5035526;28;20033;-92
2023/06/26 12:35:00;;;;;;;5.78;1.15;;;;;;;;;;5031939;28;20073;-85
2023/06/26 12:37:26;;;;;;;6.80;1.30;;;;;;;;;;5022846;28;20026;-89
2023/06/26 12:39:57;;;;;;;12.63;1.95;;;;;;;;;;5036926;28;20053;-94
2023/06/26 12:42:35;;;;;;;5.72;1.55;;;;;;;;;;5033449;28;20061;-91
2023/06/26 12:45:11;;;;;;;6.75;1.40;;;;;;;;;;5034929;28;20064;-91
2023/06/26 12:47:38;;;;;;;8.00;1.65;;;;;;;;;;5032404;28;20077;-90
2023/06/26 12:50:07;;;;;;;8.70;1.45;;;;;;;;;;5032965;28;20084;-87
2023/06/26 12:52:34;;;;;;;5.78;1.30;;;;;;;;;;5020570;28;20098;-92
2023/06/26 12:55:00;;;;;;;8.07;1.33;;;;;;;;;;5027608;28;20053;-90
2023/06/26 12:57:26;;;;;;;3.92;1.00;;;;;;;;;;5014259;28;20053;-89
2023/06/26 12:59:52;;;;;;;5.68;1.23;;;;;;;;;;5033073;28;20101;-91
2023/06/26 13:02:19;;;;;;;8.98;1.35;;;;;;;;;;5032425;28;20046;-88
2023/06/26 13:04:46;;;;;;;9.32;1.50;;;;;;;;;;5035844;28;20037;-89
2023/06/26 13:07:12;;;;;;;14.65;1.52;;;;;;;;;;5038458;28;20061;-89
2023/06/26 13:09:39;;;;;;;8.48;1.30;;;;;;;;;;5036898;28;20069;-87
2023/06/26 13:12:13;;;;;;;7.05;1.42;;;;;;;;;;5035317;28;20060;-90
2023/06/26 13:14:51;;;;;;;7.72;1.10;;;;;;;;;;5033851;28;20042;-90
2023/06/26 13:17:18;;;;;;;5.55;1.50;;;;;;;;;;5032421;28;20066;-87
2023/06/26 13:19:45;;;;;;;5.50;1.10;;;;;;;;;;5015694;28;20054;-90
2023/06/26 13:22:11;;;;;;;6.22;1.20;;;;;;;;;;5033436;28;20030;-90
2023/06/26 13:24:37;;;;;;;3.97;1.00;;;;;;;;;;5030678;28;20042;-88
2023/06/26 13:27:08;;;;;;;5.85;0.90;;;;;;;;;;5027048;28;20050;-91
2023/06/26 13:29:37;;;;;;;4.93;0.93;;;;;;;;;;5025209;28;20072;-89
2023/06/26 13:32:06;;;;;;;6.18;1.25;;;;;;;;;;5031708;28;20049;-91
2023/06/26 13:34:32;;;;;;;6.03;1.10;;;;;;;;;;5033087;28;20097;-91
2023/06/26 13:36:59;;;;;;;4.93;1.20;;;;;;;;;;5015366;28;20048;-89
2023/06/26 13:39:28;;;;;;;6.93;1.45;;;;;;;;;;5032988;28;20060;-89
2023/06/26 13:41:55;;;;;;;8.00;1.40;;;;;;;;;;5033189;28;20071;-90
2023/06/26 13:44:21;;;;;;;6.15;1.67;;;;;;;;;;5033390;28;20125;-88
2023/06/26 13:46:51;;;;;;;7.28;1.33;;;;;;;;;;5031587;28;20042;-91
2023/06/26 13:49:23;;;;;;;7.40;1.60;;;;;;;;;;5031034;28;20064;-91
2023/06/26 13:51:51;;;;;;;8.18;1.48;;;;;;;;;;5032850;28;20046;-92
2023/06/26 13:54:18;;;;;;;8.15;1.60;;;;;;;;;;5034725;28;20106;-90
2023/06/26 13:56:44;;;;;;;7.68;1.40;;;;;;;;;;5032731;28;20058;-93
2023/06/26 13:59:11;;;;;;;8.27;1.50;;;;;;;;;;5029778;28;20059;-92
2023/06/26 14:01:38;;;;;;;10.52;1.63;;;;;;;;;;5001492;28;20101;-91
2023/06/26 14:04:04;;;;;;;8.50;1.50;;;;;;;;;;5000724;28;20049;-90
2023/06/26 14:06:34;;;;;;;7.25;1.38;;;;;;;;;;5013418;28;20045;-89
2023/06/26 14:09:03;;;;;;;6.13;1.50;;;;;;;;;;5032154;28;20040;-92
2023/06/26 14:11:32;;;;;;;5.85;1.25;;;;;;;;;;5029991;28;20301;-90
2023/06/26 14:13:58;;;;;;;7.28;1.52;;;;;;;;;;5030561;28;20090;-89
2023/06/26 14:16:25;;;;;;;8.77;1.60;;;;;;;;;;5030811;28;20121;-91
2023/06/26 14:18:52;;;;;;;8.90;1.40;;;;;;;;;;5016284;28;20113;-87
2023/06/26 14:21:18;;;;;;;8.20;1.70;;;;;;;;;;5031857;28;20050;-90
2023/06/26 14:23:44;;;;;;;6.20;1.30;;;;;;;;;;5028447;28;20093;-88
2023/06/26 14:26:10;;;;;;;7.07;1.70;;;;;;;;;;5027240;28;20038;-88
2023/06/26 14:28:37;;;;;;;7.85;1.80;;;;;;;;;;5030868;28;20065;-89
2023/06/26 14:31:03;;;;;;;9.43;1.52;;;;;;;;;;5036661;28;20041;-88
2023/06/26 14:33:29;;;;;;;8.13;1.40;;;;;;;;;;5034666;28;20057;-89
2023/06/26 14:35:55;;;;;;;5.60;1.42;;;;;;;;;;5036697;28;20052;-87